createdAt,value
2018-01-18T00:01:23.299Z,97688.62
2018-01-18T00:03:51.655Z,97695.19
2018-01-18T00:06:20.020Z,97694.66
2018-01-18T00:08:48.413Z,97689.72
2018-01-18T00:11:16.768Z,97669.49
2018-01-18T00:13:45.172Z,97674.59
2018-01-18T00:16:13.569Z,97675.67
2018-01-18T00:18:41.940Z,97668.79
2018-01-18T00:21:10.302Z,97670.01
2018-01-18T00:23:38.690Z,97676.85
2018-01-18T00:26:07.076Z,97667.58
2018-01-18T00:28:35.446Z,97663.68
2018-01-18T00:31:03.830Z,97673.14
2018-01-18T00:33:33.161Z,97669.02
2018-01-18T00:36:01.507Z,97664.32
2018-01-18T00:38:29.907Z,97659.41
2018-01-18T00:40:58.282Z,97653.49
2018-01-18T00:43:26.668Z,97648.39
2018-01-18T00:45:55.030Z,97640.64
2018-01-18T00:48:25.233Z,97638.04
2018-01-18T00:50:53.690Z,97635.38
2018-01-18T00:53:22.019Z,97628.92
2018-01-18T00:55:50.406Z,97626.52
2018-01-18T00:58:18.788Z,97625.59
2018-01-18T01:00:47.181Z,97619.94
2018-01-18T01:03:15.564Z,97611.05
2018-01-18T01:05:43.934Z,97606.90
2018-01-18T01:08:12.306Z,97589.77
2018-01-18T01:10:41.608Z,97582.34
2018-01-18T01:13:09.969Z,97572.30
2018-01-18T01:15:38.395Z,97585.88
2018-01-18T01:18:06.716Z,97581.84
2018-01-18T01:20:35.099Z,97574.57
2018-01-18T01:23:03.503Z,97577.64
2018-01-18T01:25:31.869Z,97578.70
2018-01-18T01:28:00.270Z,97574.82
2018-01-18T01:30:42.907Z,97572.88
2018-01-18T01:33:11.811Z,97561.64
2018-01-18T01:35:40.144Z,97555.64
2018-01-18T01:38:08.538Z,97545.55
2018-01-18T01:40:38.787Z,97544.49
2018-01-18T01:43:07.441Z,97541.28
2018-01-18T01:45:35.820Z,97534.08
2018-01-18T01:48:04.234Z,97527.22
2018-01-18T01:50:38.969Z,97517.83
2018-01-18T01:53:07.436Z,97506.75
2018-01-18T01:55:35.852Z,97497.20
2018-01-18T01:58:05.102Z,97485.70
2018-01-18T02:00:33.502Z,97491.38
2018-01-18T02:03:01.868Z,97470.99
2018-01-18T02:05:30.246Z,97454.65
2018-01-18T02:07:58.630Z,97456.50
2018-01-18T02:10:27.010Z,97462.34
2018-01-18T02:12:55.383Z,97453.50
2018-01-18T02:15:23.773Z,97444.22
2018-01-18T02:17:52.125Z,97450.58
2018-01-18T02:20:20.486Z,97438.45
2018-01-18T02:22:48.863Z,97441.03
2018-01-18T02:25:17.349Z,97433.02
2018-01-18T02:27:45.623Z,97433.42
2018-01-18T02:30:14.049Z,97432.94
2018-01-18T02:32:42.424Z,97425.50
2018-01-18T02:35:10.788Z,97422.98
2018-01-18T02:37:39.187Z,97407.11
2018-01-18T02:40:07.552Z,97395.05
2018-01-18T02:42:35.966Z,97395.31
2018-01-18T02:45:04.309Z,97398.78
2018-01-18T02:47:32.709Z,97389.54
2018-01-18T02:50:01.082Z,97372.81
2018-01-18T02:52:31.287Z,97358.13
2018-01-18T02:54:59.669Z,97354.23
2018-01-18T02:57:28.053Z,97340.33
2018-01-18T02:59:56.422Z,97329.41
2018-01-18T03:02:24.842Z,97333.62
2018-01-18T03:04:53.227Z,97317.25
2018-01-18T03:07:21.565Z,97313.92
2018-01-18T03:09:49.928Z,97310.86
2018-01-18T03:12:18.339Z,97305.83
2018-01-18T03:14:46.725Z,97297.25
2018-01-18T03:17:15.070Z,97293.96
2018-01-18T03:19:43.505Z,97293.55
2018-01-18T03:22:11.849Z,97286.48
2018-01-18T03:24:40.237Z,97266.92
2018-01-18T03:27:08.938Z,97269.30
2018-01-18T03:29:37.292Z,97265.92
2018-01-18T03:32:06.873Z,97245.68
2018-01-18T03:34:35.907Z,97237.91
2018-01-18T03:37:04.295Z,97233.64
2018-01-18T03:39:32.682Z,97225.88
2018-01-18T03:42:01.050Z,97213.13
2018-01-18T03:44:30.365Z,97205.44
2018-01-18T03:46:58.738Z,97200.47
2018-01-18T03:49:27.107Z,97186.72
2018-01-18T03:51:55.516Z,97180.46
2018-01-18T03:54:23.873Z,97164.52
2018-01-18T03:56:52.231Z,97164.45
2018-01-18T03:59:20.645Z,97157.00
2018-01-18T04:01:49.004Z,97138.64
2018-01-18T04:04:17.409Z,97129.17
2018-01-18T04:06:45.800Z,97115.38
2018-01-18T04:09:14.169Z,97107.41
2018-01-18T04:11:42.517Z,97106.80
2018-01-18T04:14:10.932Z,97089.52
2018-01-18T04:16:39.297Z,97081.59
2018-01-18T04:19:07.666Z,97073.38
2018-01-18T04:21:36.059Z,97068.78
2018-01-18T04:24:04.430Z,97057.95
2018-01-18T04:26:32.832Z,97050.75
2018-01-18T04:29:01.202Z,97044.17
2018-01-18T04:31:29.574Z,97038.03
2018-01-18T04:33:57.977Z,97029.02
2018-01-18T04:36:26.326Z,97030.25
2018-01-18T04:38:54.693Z,97017.72
2018-01-18T04:41:23.093Z,97002.41
2018-01-18T04:43:51.490Z,96986.92
2018-01-18T04:46:19.911Z,96982.91
2018-01-18T04:48:48.225Z,96972.03
2018-01-18T04:51:16.598Z,96969.42
2018-01-18T04:53:44.983Z,96955.87
2018-01-18T04:56:13.362Z,96958.81
2018-01-18T04:58:41.776Z,96950.33
2018-01-18T05:01:10.102Z,96949.17
2018-01-18T05:03:39.430Z,96936.98
2018-01-18T05:06:07.813Z,96921.45
2018-01-18T05:08:36.185Z,96914.50
2018-01-18T05:11:04.562Z,96911.72
2018-01-18T05:13:32.957Z,96893.17
2018-01-18T05:16:01.331Z,96890.72
2018-01-18T05:18:29.695Z,96886.73
2018-01-18T05:20:58.082Z,96869.42
2018-01-18T05:23:26.496Z,96869.55
2018-01-18T05:25:54.849Z,96879.38
2018-01-18T05:28:23.246Z,96862.39
2018-01-18T05:30:51.608Z,96867.59
2018-01-18T05:33:19.981Z,96855.20
2018-01-18T05:35:48.365Z,96849.47
2018-01-18T05:38:16.753Z,96836.63
2018-01-18T05:40:45.135Z,96837.73
2018-01-18T05:43:13.501Z,96832.42
2018-01-18T05:45:41.893Z,96817.16
2018-01-18T05:48:10.276Z,96836.60
2018-01-18T05:50:38.687Z,96832.41
2018-01-18T05:53:07.427Z,96824.89
2018-01-18T05:55:35.704Z,96825.75
2018-01-18T05:58:04.083Z,96823.92
2018-01-18T06:00:32.505Z,96809.49
2018-01-18T06:03:00.834Z,96806.62
2018-01-18T06:05:29.233Z,96794.13
2018-01-18T06:07:57.665Z,96789.82
2018-01-18T06:10:26.007Z,96796.25
2018-01-18T06:12:54.698Z,96790.06
2018-01-18T06:15:23.082Z,96778.44
2018-01-18T06:17:52.377Z,96777.95
2018-01-18T06:20:20.761Z,96776.93
2018-01-18T06:22:49.105Z,96760.95
2018-01-18T06:25:17.542Z,96762.48
2018-01-18T06:27:45.861Z,96742.81
2018-01-18T06:30:14.279Z,96761.56
2018-01-18T06:32:42.645Z,96744.58
2018-01-18T06:35:11.047Z,96745.69
2018-01-18T06:37:39.812Z,96741.58
2018-01-18T06:40:08.105Z,96739.39
2018-01-18T06:42:36.487Z,96742.11
2018-01-18T06:45:04.877Z,96744.80
2018-01-18T06:47:33.239Z,96742.21
2018-01-18T06:50:01.592Z,96723.32
2018-01-18T06:52:30.065Z,96700.56
2018-01-18T06:54:58.359Z,96701.59
2018-01-18T06:57:26.734Z,96694.34
2018-01-18T06:59:55.160Z,96689.04
2018-01-18T07:02:23.511Z,96686.37
2018-01-18T07:04:52.823Z,96684.27
2018-01-18T07:07:21.198Z,96683.27
2018-01-18T07:09:49.568Z,96689.30
2018-01-18T07:12:17.984Z,96685.47
2018-01-18T07:14:46.304Z,96679.25
2018-01-18T07:17:16.533Z,96666.58
2018-01-18T07:19:44.948Z,96653.82
2018-01-18T07:22:13.318Z,96653.98
2018-01-18T07:24:41.725Z,96645.98
2018-01-18T07:27:10.079Z,96648.83
2018-01-18T07:29:38.484Z,96633.31
2018-01-18T07:32:06.856Z,96632.75
2018-01-18T07:34:35.246Z,96634.69
2018-01-18T07:37:03.592Z,96632.38
2018-01-18T07:39:31.992Z,96604.23
2018-01-18T07:42:00.338Z,96598.45
2018-01-18T07:44:29.225Z,96598.16
2018-01-18T07:46:57.506Z,96579.45
2018-01-18T07:49:26.748Z,96563.59
2018-01-18T07:51:55.131Z,96565.46
2018-01-18T07:54:23.515Z,96564.55
2018-01-18T07:56:57.271Z,96564.91
2018-01-18T07:59:25.527Z,96564.73
2018-01-18T08:01:54.789Z,96564.91
2018-01-18T08:04:26.938Z,96551.55
2018-01-18T08:06:56.055Z,96551.61
2018-01-18T08:09:24.539Z,96543.44
2018-01-18T08:11:52.909Z,96548.17
2018-01-18T08:14:21.297Z,96559.16
2018-01-18T08:16:49.681Z,96541.09
2018-01-18T08:19:18.050Z,96543.95
2018-01-18T08:21:46.828Z,96553.52
2018-01-18T08:24:15.121Z,96541.83
2018-01-18T08:26:43.489Z,96539.79
2018-01-18T08:29:11.905Z,96556.33
2018-01-18T08:31:41.205Z,96556.72
2018-01-18T08:34:09.868Z,96569.74
2018-01-18T08:36:38.218Z,96569.52
2018-01-18T08:39:06.618Z,96571.37
2018-01-18T08:41:35.006Z,96581.19
2018-01-18T08:44:03.374Z,96591.11
2018-01-18T08:46:31.794Z,96594.25
2018-01-18T08:49:00.137Z,96587.30
2018-01-18T08:51:28.515Z,96587.41
2018-01-18T08:53:56.916Z,96581.65
2018-01-18T08:56:25.282Z,96582.06
2018-01-18T08:58:54.597Z,96587.17
2018-01-18T09:01:22.950Z,96573.61
2018-01-18T09:03:51.325Z,96550.73
2018-01-18T09:06:19.723Z,96544.34
2018-01-18T09:08:48.109Z,96567.43
2018-01-18T09:11:16.484Z,96565.91
2018-01-18T09:13:44.867Z,96572.03
2018-01-18T09:16:13.233Z,96555.62
2018-01-18T09:18:41.656Z,96552.21
2018-01-18T09:21:10.009Z,96546.50
2018-01-18T09:23:38.397Z,96554.18
2018-01-18T09:26:06.758Z,96553.45
2018-01-18T09:28:35.448Z,96542.92
2018-01-18T09:31:03.901Z,96523.92
2018-01-18T09:33:32.182Z,96526.37
2018-01-18T09:36:00.614Z,96525.72
2018-01-18T09:38:28.944Z,96541.14
2018-01-18T09:40:57.350Z,96542.22
2018-01-18T09:43:25.744Z,96538.08
2018-01-18T09:45:54.108Z,96544.41
2018-01-18T09:48:22.489Z,96545.06
2018-01-18T09:50:50.866Z,96535.42
2018-01-18T09:53:19.245Z,96526.08
2018-01-18T09:55:47.651Z,96546.48
2018-01-18T09:58:16.307Z,96541.42
2018-01-18T10:00:44.580Z,96534.88
2018-01-18T10:03:12.885Z,96543.50
2018-01-18T10:05:41.150Z,96548.06
2018-01-18T10:08:09.427Z,96541.70
2018-01-18T10:10:37.706Z,96535.65
2018-01-18T10:13:05.980Z,96520.14
2018-01-18T10:15:34.402Z,96548.40
2018-01-18T10:18:02.658Z,96561.55
2018-01-18T10:20:30.948Z,96541.23
2018-01-18T10:22:59.222Z,96558.78
2018-01-18T10:25:27.901Z,96535.27
2018-01-18T10:27:56.184Z,96517.38
2018-01-18T10:30:24.436Z,96542.18
2018-01-18T10:32:52.732Z,96524.73
2018-01-18T10:35:21.024Z,96526.84
2018-01-18T10:37:49.892Z,96522.42
2018-01-18T10:40:18.185Z,96505.17
2018-01-18T10:42:47.468Z,96518.52
2018-01-18T10:45:16.776Z,96529.64
2018-01-18T10:47:45.149Z,96532.78
2018-01-18T10:50:13.516Z,96522.34
2018-01-18T10:52:41.810Z,96534.05
2018-01-18T10:55:10.285Z,96530.77
2018-01-18T10:57:38.662Z,96526.67
2018-01-18T11:00:07.031Z,96551.26
2018-01-18T11:02:35.430Z,96546.55
2018-01-18T11:05:03.811Z,96550.53
2018-01-18T11:07:32.203Z,96553.33
2018-01-18T11:10:00.568Z,96543.25
2018-01-18T11:12:28.947Z,96546.30
2018-01-18T11:14:57.341Z,96560.34
2018-01-18T11:17:25.702Z,96539.20
2018-01-18T11:19:54.109Z,96538.53
2018-01-18T11:22:22.466Z,96606.16
2018-01-18T11:24:50.874Z,96571.76
2018-01-18T11:27:19.240Z,96598.97
2018-01-18T11:29:47.619Z,96603.03
2018-01-18T11:32:15.999Z,96601.02
2018-01-18T11:34:44.400Z,96620.16
2018-01-18T11:37:12.738Z,96612.62
2018-01-18T11:39:41.154Z,96617.61
2018-01-18T11:42:09.496Z,96612.62
2018-01-18T11:44:37.904Z,96625.36
2018-01-18T11:47:06.292Z,96635.13
2018-01-18T11:49:34.652Z,96644.45
2018-01-18T11:52:03.023Z,96633.00
2018-01-18T11:54:31.413Z,96636.89
2018-01-18T11:56:59.675Z,96653.64
2018-01-18T11:59:27.958Z,96677.07
2018-01-18T12:01:56.247Z,96670.89
2018-01-18T12:04:24.523Z,96666.36
2018-01-18T12:06:53.004Z,96701.03
2018-01-18T12:09:21.276Z,96684.05
2018-01-18T12:11:49.792Z,96663.28
2018-01-18T12:14:18.147Z,96669.56
2018-01-18T12:16:46.529Z,96689.07
2018-01-18T12:19:14.950Z,96675.97
2018-01-18T12:21:43.300Z,96690.22
2018-01-18T12:24:11.676Z,96696.88
2018-01-18T12:26:40.046Z,96697.48
2018-01-18T12:29:08.321Z,96696.96
2018-01-18T12:31:36.796Z,96678.38
2018-01-18T12:34:05.205Z,96681.09
2018-01-18T12:36:33.590Z,96692.41
2018-01-18T12:39:04.103Z,96712.54
2018-01-18T12:41:32.506Z,96689.09
2018-01-18T12:44:00.862Z,96691.58
2018-01-18T13:34:31.377Z,96715.67
2018-01-18T13:37:00.252Z,96710.80
2018-01-18T13:39:28.564Z,96720.67
2018-01-18T13:41:57.629Z,96724.45
2018-01-18T13:44:25.914Z,96724.22
2018-01-18T13:46:54.173Z,96731.25
2018-01-18T13:49:22.458Z,96736.24
2018-01-18T13:51:50.741Z,96743.17
2018-01-18T13:54:19.011Z,96742.10
2018-01-18T13:56:47.283Z,96757.41
2018-01-18T13:59:15.563Z,96781.48
2018-01-18T14:01:43.823Z,96755.87
2018-01-18T14:04:14.129Z,96784.31
2018-01-18T14:06:42.390Z,96772.04
2018-01-18T14:09:10.686Z,96785.45
2018-01-18T14:11:38.967Z,96784.21
2018-01-18T14:14:07.237Z,96784.97
2018-01-18T14:16:35.498Z,96797.56
2018-01-18T14:19:04.511Z,96796.05
2018-01-18T14:21:32.813Z,96789.87
2018-01-18T14:24:01.106Z,96801.33
2018-01-18T14:26:29.351Z,96803.86
2018-01-18T14:28:57.628Z,96804.62
2018-01-18T14:31:25.902Z,96806.22
2018-01-18T14:33:55.251Z,96811.84
2018-01-18T14:36:23.553Z,96814.96
2018-01-18T14:38:51.820Z,96817.81
2018-01-18T14:41:20.089Z,96814.32
2018-01-18T14:43:48.331Z,96820.48
2018-01-18T14:46:16.626Z,96826.69
2018-01-18T14:48:44.903Z,96818.89
2018-01-18T14:51:13.168Z,96829.52
2018-01-18T14:53:41.451Z,96834.73
2018-01-18T14:56:09.718Z,96835.56
2018-01-18T14:58:41.531Z,96848.77
2018-01-18T15:01:10.593Z,96843.39
2018-01-18T15:03:39.825Z,96844.02
2018-01-18T15:06:08.995Z,96841.80
2018-01-18T15:08:41.818Z,96846.22
2018-01-18T15:11:10.776Z,96850.34
2018-01-18T15:13:39.774Z,96859.06
2018-01-18T15:16:08.703Z,96847.52
2018-01-18T15:18:41.760Z,96846.44
2018-01-18T15:21:10.332Z,96843.42
2018-01-18T15:23:38.858Z,96856.58
2018-01-18T15:26:07.212Z,96864.78
2018-01-18T15:28:35.486Z,96861.47
2018-01-18T15:31:03.791Z,96863.88
2018-01-18T15:33:32.060Z,96863.48
2018-01-18T15:36:00.324Z,96871.09
2018-01-18T15:38:28.617Z,96863.66
2018-01-18T15:40:56.869Z,96872.88
2018-01-18T15:43:25.152Z,96869.11
2018-01-18T15:45:53.832Z,96873.13
2018-01-18T15:48:22.104Z,96878.53
2018-01-18T15:50:50.389Z,96873.11
2018-01-18T15:53:18.645Z,96886.27
2018-01-18T15:55:46.929Z,96881.85
2018-01-18T15:58:15.191Z,96884.74
2018-01-18T16:00:44.215Z,96887.14
2018-01-18T16:03:12.506Z,96894.05
2018-01-18T16:05:40.777Z,96895.64
2018-01-18T16:08:09.083Z,96899.54
2018-01-18T16:10:37.334Z,96899.84
2018-01-18T16:13:06.064Z,96901.44
2018-01-18T16:15:34.338Z,96905.42
2018-01-18T16:18:02.612Z,96911.84
2018-01-18T16:20:30.904Z,96916.30
2018-01-18T16:22:59.935Z,96925.79
2018-01-18T16:25:28.223Z,96925.63
2018-01-18T16:27:56.918Z,96935.04
2018-01-18T16:30:25.182Z,96936.39
2018-01-18T16:32:54.009Z,96938.32
2018-01-18T16:35:22.282Z,96932.55
2018-01-18T16:37:50.537Z,96941.88
2018-01-18T16:40:18.831Z,96942.63
2018-01-18T16:42:47.513Z,96951.78
2018-01-18T16:45:15.842Z,96957.52
2018-01-18T16:47:44.120Z,96957.39
2018-01-18T16:50:13.545Z,96955.59
2018-01-18T16:52:41.832Z,96962.81
2018-01-18T16:55:10.109Z,96971.12
2018-01-18T16:57:38.466Z,96972.02
2018-01-18T17:00:06.702Z,96970.58
2018-01-18T17:02:35.010Z,96973.92
2018-01-18T17:05:03.285Z,96976.48
2018-01-18T17:07:32.314Z,96966.87
2018-01-18T17:10:00.592Z,96974.58
2018-01-18T17:12:29.636Z,96968.43
2018-01-18T17:14:58.302Z,96963.36
2018-01-18T17:17:26.988Z,96964.04
2018-01-18T17:19:55.245Z,96975.19
2018-01-18T17:22:23.517Z,96982.11
2018-01-18T17:24:51.789Z,96990.84
2018-01-18T17:27:20.038Z,97005.80
2018-01-18T17:29:49.310Z,97013.02
2018-01-18T17:32:17.618Z,97022.39
2018-01-18T17:34:46.673Z,97032.28
2018-01-18T17:37:14.935Z,97029.40
2018-01-18T17:39:43.208Z,97032.12
2018-01-18T17:42:12.017Z,97038.75
2018-01-18T17:44:40.268Z,97039.72
2018-01-18T17:47:08.582Z,97035.56
2018-01-18T17:49:36.877Z,97039.39
2018-01-18T17:52:05.161Z,97034.30
2018-01-18T17:54:34.164Z,97032.40
2018-01-18T17:57:02.900Z,97028.72
2018-01-18T17:59:31.190Z,97034.09
2018-01-18T18:02:00.265Z,97029.67
2018-01-18T18:04:29.331Z,97036.30
2018-01-18T18:06:58.866Z,97043.48
2018-01-18T18:09:27.140Z,97048.02
2018-01-18T18:11:55.417Z,97040.52
2018-01-18T18:14:23.714Z,97046.03
2018-01-18T18:16:51.996Z,97052.23
2018-01-18T18:19:20.289Z,97051.31
2018-01-18T18:21:48.591Z,97048.55
2018-01-18T18:24:16.885Z,97038.73
2018-01-18T18:26:45.149Z,97039.28
2018-01-18T18:29:14.209Z,97047.11
2018-01-18T18:31:42.473Z,97053.05
2018-01-18T18:34:10.736Z,97059.20
2018-01-18T18:36:39.443Z,97057.34
2018-01-18T18:39:07.703Z,97062.42
2018-01-18T18:41:36.716Z,97065.78
2018-01-18T18:44:05.221Z,97060.86
2018-01-18T18:46:33.546Z,97055.20
2018-01-18T18:49:01.833Z,97061.23
2018-01-18T18:51:30.135Z,97057.30
2018-01-18T18:53:58.416Z,97062.10
2018-01-18T18:56:26.707Z,97064.16
2018-01-18T18:58:54.983Z,97072.55
2018-01-18T19:01:23.276Z,97074.66
2018-01-18T19:03:51.934Z,97076.99
2018-01-18T19:06:20.619Z,97075.95
2018-01-18T19:08:49.516Z,97062.44
2018-01-18T19:11:17.783Z,97065.23
2018-01-18T19:13:46.645Z,97057.45
2018-01-18T19:16:16.504Z,97060.02
2018-01-18T19:18:45.102Z,97056.88
2018-01-18T19:21:13.423Z,97061.25
2018-01-18T19:23:42.465Z,97059.41
2018-01-18T19:26:10.726Z,97053.80
2018-01-18T19:28:38.985Z,97056.23
2018-01-18T19:31:07.588Z,97054.33
2018-01-18T19:33:35.884Z,97050.34
2018-01-18T19:36:04.273Z,97050.50
2018-01-18T19:38:33.828Z,97073.14
2018-01-18T19:41:02.090Z,97072.16
2018-01-18T19:43:30.740Z,97083.36
2018-01-18T19:45:59.017Z,97087.12
2018-01-18T19:48:31.566Z,97083.50
2018-01-18T19:51:00.360Z,97078.98
2018-01-18T19:53:28.638Z,97071.91
2018-01-18T19:55:56.934Z,97070.35
2018-01-18T19:58:25.214Z,97077.18
2018-01-18T20:00:53.496Z,97067.34
2018-01-18T20:03:21.967Z,97070.91
2018-01-18T20:05:50.298Z,97064.85
2018-01-18T20:08:19.392Z,97061.88
2018-01-18T20:10:48.495Z,97059.74
2018-01-18T20:13:17.684Z,97070.77
2018-01-18T20:15:46.730Z,97069.70
2018-01-18T20:18:15.019Z,97073.95
2018-01-18T20:20:43.296Z,97067.78
2018-01-18T20:23:11.980Z,97063.74
2018-01-18T20:25:40.260Z,97069.23
2018-01-18T20:28:08.528Z,97062.72
2018-01-18T20:30:36.823Z,97068.11
2018-01-18T20:33:06.214Z,97071.42
2018-01-18T20:35:34.512Z,97073.28
2018-01-18T20:38:02.869Z,97069.29
2018-01-18T20:40:31.176Z,97055.88
2018-01-18T20:42:59.462Z,97055.02
2018-01-18T20:45:27.753Z,97052.19
2018-01-18T20:47:56.822Z,97058.17
2018-01-18T20:50:25.915Z,97058.25
2018-01-18T20:52:54.815Z,97063.41
2018-01-18T20:55:23.092Z,97069.09
2018-01-18T20:57:51.990Z,97055.72
2018-01-18T21:00:20.288Z,97044.67
2018-01-18T21:02:49.360Z,97039.19
2018-01-18T21:05:17.652Z,97027.52
2018-01-18T21:07:46.705Z,97025.20
2018-01-18T21:10:15.012Z,97034.69
2018-01-18T21:12:43.379Z,97031.23
2018-01-18T21:15:11.666Z,97025.95
2018-01-18T21:17:39.961Z,97007.60
2018-01-18T21:20:08.220Z,97010.70
2018-01-18T21:22:36.522Z,97009.30
2018-01-18T21:25:06.498Z,97022.94
2018-01-18T21:27:34.903Z,97010.34
2018-01-18T21:30:03.248Z,97009.03
2018-01-18T21:32:31.699Z,97010.34
2018-01-18T21:35:00.012Z,97011.67
2018-01-18T21:37:28.397Z,97004.13
2018-01-18T21:39:57.923Z,96981.08
2018-01-18T21:42:26.364Z,96996.71
2018-01-18T21:44:54.737Z,96996.28
2018-01-18T21:47:23.166Z,96988.24
2018-01-18T21:49:55.217Z,96994.02
2018-01-18T21:52:23.619Z,96994.52
2018-01-18T21:54:51.957Z,97003.98
2018-01-18T21:57:21.263Z,96995.18
2018-01-18T21:59:49.661Z,97006.53
2018-01-18T22:02:18.021Z,97014.02
2018-01-18T22:04:47.326Z,97017.30
2018-01-18T22:07:15.749Z,97013.09
2018-01-18T22:09:44.079Z,97018.55
2018-01-18T22:12:12.493Z,97023.66
2018-01-18T22:14:40.855Z,97043.00
2018-01-18T22:17:09.241Z,97076.02
2018-01-18T22:19:39.449Z,97100.38
2018-01-18T22:22:07.845Z,97098.33
2018-01-18T22:24:36.234Z,97096.90
2018-01-18T22:27:04.583Z,97112.03
2018-01-18T22:29:32.987Z,97110.28
2018-01-18T22:32:01.339Z,97116.89
2018-01-18T22:34:29.742Z,97112.14
2018-01-18T22:37:01.182Z,97111.80
2018-01-18T22:39:32.955Z,97092.58
2018-01-18T22:42:01.731Z,97062.77
2018-01-18T22:44:30.903Z,97061.30
2018-01-18T22:46:59.592Z,97050.66
2018-01-18T22:49:28.020Z,97029.27
2018-01-18T22:51:56.261Z,97022.83
2018-01-18T22:54:24.755Z,97020.75
2018-01-18T22:56:53.031Z,97048.50
2018-01-18T22:59:21.531Z,97057.43
2018-01-18T23:01:49.921Z,97072.81
2018-01-18T23:04:21.936Z,97076.61
2018-01-18T23:06:50.367Z,97077.59
2018-01-18T23:09:18.706Z,97071.58
2018-01-18T23:11:47.089Z,97073.02
2018-01-18T23:14:17.829Z,97063.05
2018-01-18T23:16:47.256Z,97057.12
2018-01-18T23:19:15.621Z,97060.61
2018-01-18T23:21:48.006Z,97057.53
2018-01-18T23:24:16.389Z,97064.19
2018-01-18T23:26:48.489Z,97063.44
2018-01-18T23:29:17.244Z,97066.72
2018-01-18T23:31:45.506Z,97072.94
2018-01-18T23:34:13.865Z,97076.53
2018-01-18T23:36:42.277Z,97072.19
2018-01-18T23:39:10.665Z,97066.97
2018-01-18T23:41:39.038Z,97072.69
2018-01-18T23:44:11.698Z,97069.05
2018-01-18T23:46:40.063Z,97081.83
2018-01-18T23:49:08.495Z,97078.23
2018-01-18T23:51:40.246Z,97080.30
2018-01-18T23:54:08.623Z,97079.69
2018-01-18T23:56:37.012Z,97076.22
2018-01-18T23:59:08.741Z,97058.23
